createdAt,value
2019-03-02T00:01:02.317Z,99.90
2019-03-02T00:03:34.690Z,99.90
2019-03-02T00:06:02.695Z,99.90
2019-03-02T00:08:32.028Z,99.90
2019-03-02T00:11:01.437Z,99.90
2019-03-02T00:13:30.847Z,99.90
2019-03-02T00:16:00.888Z,99.90
2019-03-02T00:18:30.391Z,99.90
2019-03-02T00:20:59.696Z,99.90
2019-03-02T00:23:29.068Z,99.90
2019-03-02T00:25:58.388Z,99.90
2019-03-02T00:28:27.690Z,99.90
2019-03-02T00:30:57.806Z,99.90
2019-03-02T00:33:27.938Z,99.90
2019-03-02T00:35:57.313Z,99.90
2019-03-02T00:38:26.632Z,99.90
2019-03-02T00:40:56.048Z,99.90
2019-03-02T00:43:27.082Z,99.90
2019-03-02T00:45:57.482Z,99.90
2019-03-02T00:48:26.920Z,99.90
2019-03-02T00:50:56.280Z,99.90
2019-03-02T00:53:25.591Z,99.90
2019-03-02T00:55:55.002Z,99.90
2019-03-02T00:58:25.592Z,99.90
2019-03-02T01:00:55.503Z,99.90
2019-03-02T01:03:24.870Z,99.90
2019-03-02T01:05:54.240Z,99.90
2019-03-02T01:08:23.867Z,99.90
2019-03-02T01:10:54.804Z,99.90
2019-03-02T01:13:24.229Z,99.90
2019-03-02T01:15:53.665Z,99.90
2019-03-02T01:18:22.987Z,99.90
2019-03-02T01:20:52.335Z,99.90
2019-03-02T01:23:23.749Z,99.90
2019-03-02T01:25:52.764Z,99.90
2019-03-02T01:28:22.088Z,99.90
2019-03-02T01:30:52.065Z,99.90
2019-03-02T01:33:21.383Z,99.90
2019-03-02T01:35:53.938Z,99.90
2019-03-02T01:38:22.869Z,99.90
2019-03-02T01:40:52.207Z,99.90
2019-03-02T01:43:22.004Z,99.90
2019-03-02T01:45:51.419Z,99.90
2019-03-02T01:48:22.876Z,99.90
2019-03-02T01:50:51.885Z,99.90
2019-03-02T01:53:21.231Z,99.90
2019-03-02T01:55:50.633Z,99.90
2019-03-02T01:58:20.166Z,99.90
2019-03-02T02:00:50.016Z,99.90
2019-03-02T02:03:19.558Z,99.90
2019-03-02T02:05:48.995Z,99.90
2019-03-02T02:08:18.333Z,99.90
2019-03-02T02:10:47.631Z,99.90
2019-03-02T02:13:16.996Z,99.90
2019-03-02T02:15:46.346Z,99.90
2019-03-02T02:18:15.648Z,99.90
2019-03-02T02:20:46.860Z,99.90
2019-03-02T02:23:16.033Z,99.90
2019-03-02T02:25:45.361Z,99.90
2019-03-02T02:28:14.643Z,99.90
2019-03-02T02:30:44.105Z,99.90
2019-03-02T02:33:13.518Z,99.90
2019-03-02T02:35:42.819Z,99.90
2019-03-02T02:38:16.049Z,99.90
2019-03-02T02:40:43.288Z,99.90
2019-03-02T02:43:20.485Z,99.90
2019-03-02T02:45:43.749Z,99.90
2019-03-02T02:48:13.067Z,99.90
2019-03-02T02:50:43.084Z,99.90
2019-03-02T02:53:12.561Z,99.90
2019-03-02T02:55:42.273Z,99.90
2019-03-02T02:58:12.603Z,99.90
2019-03-02T03:00:42.717Z,99.90
2019-03-02T03:03:15.879Z,99.90
2019-03-02T03:05:43.068Z,99.90
2019-03-02T03:08:12.404Z,99.90
2019-03-02T03:10:42.890Z,99.90
2019-03-02T03:13:12.338Z,99.90
2019-03-02T03:15:46.538Z,99.90
2019-03-02T03:18:15.936Z,99.90
2019-03-02T03:20:48.934Z,99.90
2019-03-02T03:23:20.246Z,99.90
2019-03-02T03:25:56.141Z,99.90
2019-03-02T03:28:18.524Z,99.90
2019-03-02T03:30:48.123Z,99.90
2019-03-02T03:33:17.435Z,99.90
2019-03-02T03:35:46.828Z,99.90
2019-03-02T03:38:16.275Z,99.90
2019-03-02T03:40:45.633Z,99.90
2019-03-02T03:43:15.023Z,99.90
2019-03-02T03:45:45.045Z,99.90
2019-03-02T03:48:17.950Z,99.90
2019-03-02T03:50:48.078Z,99.90
2019-03-02T03:53:16.651Z,99.90
2019-03-02T03:55:45.935Z,99.90
2019-03-02T03:58:15.319Z,99.90
2019-03-02T04:00:44.599Z,99.90
2019-03-02T04:03:14.998Z,99.90
2019-03-02T04:05:47.091Z,99.90
2019-03-02T04:08:15.543Z,99.90
2019-03-02T04:10:44.833Z,99.90
2019-03-02T04:13:14.161Z,99.90
2019-03-02T04:15:43.635Z,99.90
2019-03-02T04:18:50.126Z,99.90
2019-03-02T04:21:23.449Z,99.90
2019-03-02T04:27:17.755Z,99.90
2019-03-02T04:29:49.915Z,99.90
2019-03-02T04:32:18.158Z,99.90
2019-03-02T04:34:47.486Z,99.90
2019-03-02T04:37:20.280Z,99.90
2019-03-02T04:39:49.986Z,99.90
2019-03-02T04:42:18.985Z,99.90
2019-03-02T04:44:48.667Z,99.90
2019-03-02T04:47:18.027Z,99.90
2019-03-02T04:49:51.082Z,99.90
2019-03-02T04:52:18.572Z,99.90
2019-03-02T04:54:47.936Z,99.90
2019-03-02T04:57:17.364Z,99.90
2019-03-02T04:59:46.696Z,99.90
2019-03-02T05:02:16.756Z,99.90
2019-03-02T05:04:47.191Z,99.90
2019-03-02T05:07:16.603Z,99.90
2019-03-02T05:09:48.647Z,99.90
2019-03-02T05:12:17.056Z,99.90
2019-03-02T05:14:46.469Z,99.90
2019-03-02T05:17:15.808Z,99.90
2019-03-02T05:19:45.203Z,99.90
2019-03-02T05:22:15.479Z,99.90
2019-03-02T05:24:45.657Z,99.90
2019-03-02T05:27:14.983Z,99.90
2019-03-02T05:29:44.316Z,99.90
2019-03-02T05:32:15.986Z,99.90
2019-03-02T05:34:44.735Z,99.90
2019-03-02T05:37:14.056Z,99.90
2019-03-02T05:39:43.391Z,99.90
2019-03-02T05:42:13.608Z,99.90
2019-03-02T05:44:43.805Z,99.90
2019-03-02T05:47:13.238Z,99.90
2019-03-02T05:49:42.567Z,99.90
2019-03-02T05:52:14.479Z,99.90
2019-03-02T05:54:43.030Z,99.90
2019-03-02T05:57:12.433Z,99.90
2019-03-02T05:59:41.737Z,99.90
2019-03-02T06:02:13.968Z,99.90
2019-03-02T06:04:42.206Z,99.90
2019-03-02T06:07:11.547Z,99.90
2019-03-02T06:09:40.846Z,99.90
2019-03-02T06:12:11.916Z,99.90
2019-03-02T06:14:41.209Z,99.90
2019-03-02T06:17:10.573Z,99.90
2019-03-02T06:19:39.922Z,99.90
2019-03-02T06:22:09.298Z,99.90
2019-03-02T06:24:41.033Z,99.90
2019-03-02T06:27:10.937Z,99.90
2019-03-02T06:29:40.732Z,99.90
2019-03-02T06:32:10.109Z,99.90
2019-03-02T06:34:39.439Z,99.90
2019-03-02T06:37:08.811Z,99.90
2019-03-02T06:39:40.996Z,99.90
2019-03-02T06:42:09.820Z,99.90
2019-03-02T06:44:40.285Z,99.90
2019-03-02T06:47:09.615Z,99.90
2019-03-02T06:49:39.107Z,99.90
2019-03-02T06:52:08.420Z,99.90
2019-03-02T06:54:37.778Z,99.90
2019-03-02T06:57:07.120Z,99.90
2019-03-02T06:59:39.309Z,99.90
2019-03-02T07:02:07.613Z,99.90
2019-03-02T07:04:36.977Z,99.90
2019-03-02T07:07:06.417Z,99.90
2019-03-02T07:09:35.772Z,99.90
2019-03-02T07:12:05.913Z,99.90
2019-03-02T07:14:36.290Z,99.90
2019-03-02T07:17:05.716Z,99.90
2019-03-02T07:19:51.856Z,99.90
2019-03-02T07:22:22.091Z,99.90
2019-03-02T07:24:51.350Z,99.90
2019-03-02T07:27:20.760Z,99.90
2019-03-02T07:29:53.664Z,99.90
2019-03-02T07:32:21.378Z,99.90
2019-03-02T07:34:50.875Z,99.90
2019-03-02T07:37:20.236Z,99.90
2019-03-02T07:39:49.706Z,99.90
2019-03-02T07:42:19.037Z,99.90
2019-03-02T07:44:48.484Z,99.90
2019-03-02T07:47:20.617Z,99.90
2019-03-02T07:49:49.856Z,99.90
2019-03-02T07:52:20.079Z,99.90
2019-03-02T07:54:58.140Z,99.90
2019-03-02T07:57:20.444Z,99.90
2019-03-02T07:59:49.811Z,99.90
2019-03-02T08:02:19.214Z,99.90
2019-03-02T08:04:48.554Z,99.90
2019-03-02T08:07:17.912Z,99.90
2019-03-02T08:09:47.337Z,99.90
2019-03-02T08:12:16.717Z,99.90
2019-03-02T08:14:47.842Z,99.90
2019-03-02T08:17:17.212Z,99.90
2019-03-02T08:19:48.571Z,99.90
2019-03-02T08:22:17.632Z,99.90
2019-03-02T08:24:47.046Z,99.90
2019-03-02T08:27:16.471Z,99.90
2019-03-02T08:29:45.913Z,99.90
2019-03-02T08:32:17.707Z,99.90
2019-03-02T08:34:47.091Z,99.90
2019-03-02T08:37:16.625Z,99.90
2019-03-02T08:39:46.539Z,99.90
2019-03-02T08:42:17.254Z,99.90
2019-03-02T08:44:46.653Z,99.90
2019-03-02T08:47:16.093Z,99.90
2019-03-02T08:49:45.419Z,99.90
2019-03-02T08:52:14.817Z,99.90
2019-03-02T08:54:44.209Z,99.90
2019-03-02T08:57:13.603Z,99.90
2019-03-02T08:59:42.986Z,99.90
2019-03-02T09:02:12.452Z,99.90
2019-03-02T09:04:41.787Z,99.90
2019-03-02T09:07:11.412Z,99.90
2019-03-02T09:09:41.483Z,99.90
2019-03-02T09:12:10.910Z,99.90
2019-03-02T09:14:40.247Z,99.90
2019-03-02T09:17:09.695Z,99.90
2019-03-02T09:19:39.131Z,99.90
2019-03-02T09:22:08.512Z,99.90
2019-03-02T09:24:37.953Z,99.90
2019-03-02T09:27:34.924Z,99.90
2019-03-02T09:30:08.805Z,99.90
2019-03-02T09:32:38.148Z,99.90
2019-03-02T09:35:07.922Z,99.90
2019-03-02T09:37:37.337Z,99.90
2019-03-02T09:40:10.116Z,99.90
2019-03-02T09:42:40.497Z,99.90
2019-03-02T09:45:11.528Z,99.90
2019-03-02T09:47:43.916Z,99.90
2019-03-02T09:50:14.426Z,99.90
2019-03-02T09:52:43.886Z,99.90
2019-03-02T09:55:14.768Z,99.90
2019-03-02T09:57:47.529Z,99.90
2019-03-02T10:00:24.070Z,99.90
2019-03-02T10:02:52.134Z,99.90
2019-03-02T10:05:21.565Z,99.90
2019-03-02T10:07:50.938Z,99.90
2019-03-02T10:10:21.045Z,99.90
2019-03-02T10:12:53.110Z,99.90
2019-03-02T10:15:22.460Z,99.90
2019-03-02T10:17:51.820Z,99.90
2019-03-02T10:20:21.241Z,99.90
2019-03-02T10:22:50.612Z,99.90
2019-03-02T10:25:20.046Z,99.90
2019-03-02T10:27:49.358Z,99.90
2019-03-02T10:30:22.159Z,99.90
2019-03-02T10:32:52.040Z,99.90
2019-03-02T10:35:21.488Z,99.90
2019-03-02T10:37:50.988Z,99.90
2019-03-02T10:40:20.375Z,99.90
2019-03-02T10:42:49.795Z,99.90
2019-03-02T10:45:19.200Z,99.90
2019-03-02T10:47:48.924Z,99.90
2019-03-02T10:50:23.553Z,99.90
2019-03-02T10:52:51.327Z,99.90
2019-03-02T10:55:21.113Z,99.90
2019-03-02T10:58:18.655Z,99.90
2019-03-02T11:00:48.038Z,99.90
2019-03-02T11:03:17.470Z,99.90
2019-03-02T11:06:15.039Z,99.90
2019-03-02T11:09:04.149Z,99.90
2019-03-02T11:11:58.144Z,99.90
2019-03-02T11:14:46.421Z,99.90
2019-03-02T11:17:55.707Z,99.90
2019-03-02T11:20:45.591Z,99.90
2019-03-02T11:23:32.692Z,99.90
2019-03-02T11:26:23.752Z,99.90
2019-03-02T11:29:17.766Z,99.90
2019-03-02T11:32:03.290Z,99.90
2019-03-02T11:34:53.932Z,99.90
2019-03-02T11:37:45.257Z,99.90
2019-03-02T11:40:48.638Z,99.90
2019-03-02T11:43:52.273Z,99.90
2019-03-02T11:47:20.873Z,99.90
2019-03-02T11:56:11.214Z,99.90
2019-03-02T11:58:58.447Z,99.90
2019-03-02T12:01:52.639Z,99.90
2019-03-02T12:04:44.916Z,99.90
2019-03-02T12:07:28.019Z,99.90
2019-03-02T12:10:34.907Z,99.90
2019-03-02T12:13:23.428Z,99.90
2019-03-02T12:19:32.325Z,99.90
2019-03-02T12:22:09.556Z,99.90
2019-03-02T12:24:58.485Z,99.90
2019-03-02T12:31:23.684Z,99.90
2019-03-02T12:37:35.416Z,99.90
2019-03-02T12:40:27.596Z,99.20
2019-03-02T12:43:08.669Z,98.40
2019-03-02T12:45:54.536Z,98.80
2019-03-02T12:48:57.555Z,99.30
2019-03-02T12:51:48.939Z,99.90
2019-03-02T12:54:39.229Z,99.90
2019-03-02T12:57:16.663Z,99.90
2019-03-02T13:00:00.521Z,99.90
2019-03-02T13:02:47.982Z,99.90
2019-03-02T13:05:37.700Z,99.90
2019-03-02T13:08:48.751Z,99.90
2019-03-02T13:11:49.098Z,99.30
2019-03-02T13:14:32.238Z,96.60
2019-03-02T13:17:09.793Z,96.50
2019-03-02T13:19:59.001Z,94.50
2019-03-02T13:25:44.289Z,94.00
2019-03-02T13:28:25.002Z,94.70
2019-03-02T13:31:14.230Z,94.90
2019-03-02T13:34:01.286Z,94.90
2019-03-02T13:37:35.602Z,94.30
2019-03-02T13:40:13.371Z,94.70
2019-03-02T13:43:04.513Z,95.00
2019-03-02T13:45:58.919Z,94.90
2019-03-02T13:49:09.795Z,96.00
2019-03-02T13:52:10.276Z,96.70
2019-03-02T13:54:59.245Z,96.40
2019-03-02T13:57:50.925Z,96.30
2019-03-02T14:00:33.033Z,96.00
2019-03-02T14:03:16.903Z,96.00
2019-03-02T14:06:17.776Z,96.00
2019-03-02T14:08:52.005Z,96.10
2019-03-02T14:11:39.777Z,96.50
2019-03-02T14:14:27.820Z,97.10
2019-03-02T14:17:32.370Z,96.90
2019-03-02T14:20:49.229Z,97.50
2019-03-02T14:23:34.986Z,98.20
2019-03-02T14:26:13.559Z,99.50
2019-03-02T14:29:08.080Z,99.70
2019-03-02T14:32:00.735Z,99.00
2019-03-02T14:34:49.214Z,99.90
2019-03-02T14:37:32.378Z,99.90
2019-03-02T14:40:29.444Z,99.90
2019-03-02T14:43:32.891Z,99.90
2019-03-02T14:46:33.319Z,99.90
2019-03-02T14:49:20.358Z,99.90
2019-03-02T14:52:23.515Z,99.90
2019-03-02T14:55:07.262Z,99.90
2019-03-02T14:57:56.749Z,99.90
2019-03-02T15:01:02.760Z,99.90
2019-03-02T15:03:50.561Z,99.90
2019-03-02T15:06:31.621Z,99.90
2019-03-02T15:09:08.801Z,99.90
2019-03-02T15:11:58.582Z,99.90
2019-03-02T15:14:42.912Z,99.90
2019-03-02T15:17:19.716Z,99.90
2019-03-02T15:20:06.511Z,99.90
2019-03-02T15:22:51.889Z,99.90
2019-03-02T15:25:40.234Z,99.90
2019-03-02T15:28:15.365Z,99.90
2019-03-02T15:30:52.140Z,99.90
2019-03-02T15:33:33.881Z,99.90
2019-03-02T15:36:16.930Z,99.90
2019-03-02T15:39:03.621Z,99.90
2019-03-02T15:41:51.988Z,99.90
2019-03-02T15:44:42.950Z,99.90
2019-03-02T15:47:30.342Z,99.90
2019-03-02T15:50:09.097Z,99.90
2019-03-02T15:53:03.387Z,99.90
2019-03-02T15:55:41.210Z,99.90
2019-03-02T15:58:59.801Z,99.90
2019-03-02T16:01:55.124Z,99.90
2019-03-02T16:04:36.894Z,99.90
2019-03-02T16:07:22.237Z,99.90
2019-03-02T16:10:22.761Z,99.90
2019-03-02T16:13:16.946Z,99.90
2019-03-02T16:16:13.013Z,99.90
2019-03-02T16:19:12.839Z,99.90
2019-03-02T16:21:57.163Z,99.90
2019-03-02T16:25:04.951Z,99.90
2019-03-02T16:27:48.323Z,99.90
2019-03-02T16:30:36.633Z,99.90
2019-03-02T16:33:23.359Z,99.90
2019-03-02T16:36:14.423Z,99.90
2019-03-02T16:39:06.893Z,99.90
2019-03-02T16:42:07.090Z,99.90
2019-03-02T16:44:54.676Z,99.90
2019-03-02T16:47:58.181Z,99.90
2019-03-02T16:50:50.025Z,99.90
2019-03-02T16:53:41.002Z,99.90
2019-03-02T16:56:31.657Z,99.90
2019-03-02T16:59:18.392Z,99.90
2019-03-02T17:02:05.072Z,99.90
2019-03-02T17:04:51.341Z,99.90
2019-03-02T17:07:58.802Z,99.90
2019-03-02T17:10:49.723Z,99.90
2019-03-02T17:13:33.560Z,99.90
2019-03-02T17:16:18.332Z,99.90
2019-03-02T17:18:54.573Z,99.90
2019-03-02T17:21:41.279Z,99.90
2019-03-02T17:24:29.661Z,99.90
2019-03-02T17:27:17.742Z,99.90
2019-03-02T17:29:54.312Z,99.90
2019-03-02T17:32:28.457Z,99.90
2019-03-02T17:35:21.011Z,99.90
2019-03-02T17:38:08.051Z,99.90
2019-03-02T17:40:56.316Z,99.90
2019-03-02T17:43:50.791Z,99.90
2019-03-02T17:46:37.760Z,99.90
2019-03-02T17:49:17.425Z,99.90
2019-03-02T17:52:15.499Z,99.90
2019-03-02T17:55:15.624Z,99.90
2019-03-02T17:57:56.188Z,99.90
2019-03-02T18:00:57.027Z,99.90
2019-03-02T18:03:39.198Z,99.90
2019-03-02T18:06:30.332Z,99.90
2019-03-02T18:09:17.066Z,99.90
2019-03-02T18:12:13.458Z,99.90
2019-03-02T18:15:01.726Z,99.90
2019-03-02T18:18:04.991Z,99.90
2019-03-02T18:20:37.427Z,99.90
2019-03-02T18:23:06.983Z,99.90
2019-03-02T18:25:36.398Z,99.90
2019-03-02T18:28:05.806Z,99.90
2019-03-02T18:30:38.750Z,99.90
2019-03-02T18:33:19.213Z,99.90
2019-03-02T18:35:48.658Z,99.90
2019-03-02T18:38:18.167Z,99.90
2019-03-02T18:40:47.496Z,99.90
2019-03-02T18:43:16.983Z,99.90
2019-03-02T18:45:46.457Z,99.90
2019-03-02T18:48:35.368Z,99.90
2019-03-02T18:51:15.108Z,99.90
2019-03-02T18:53:44.522Z,99.90
2019-03-02T18:56:13.976Z,99.90
2019-03-02T18:58:43.520Z,99.90
2019-03-02T19:01:13.392Z,99.90
2019-03-02T19:03:42.780Z,99.90
2019-03-02T19:06:12.308Z,99.90
2019-03-02T19:08:41.733Z,99.90
2019-03-02T19:11:11.174Z,99.90
2019-03-02T19:13:40.729Z,99.90
2019-03-02T19:16:11.747Z,99.90
2019-03-02T19:18:41.276Z,99.90
2019-03-02T19:21:10.640Z,99.90
2019-03-02T19:23:40.262Z,99.90
2019-03-02T19:26:10.715Z,99.90
2019-03-02T19:28:40.599Z,99.90
2019-03-02T19:31:10.044Z,99.90
2019-03-02T19:33:39.470Z,99.90
2019-03-02T19:36:08.845Z,99.90
2019-03-02T19:38:38.266Z,99.90
2019-03-02T19:41:07.751Z,99.90
2019-03-02T19:43:37.217Z,99.90
2019-03-02T19:46:06.821Z,99.90
2019-03-02T19:48:36.249Z,99.90
2019-03-02T19:51:05.658Z,99.90
2019-03-02T19:53:35.209Z,99.90
2019-03-02T19:56:04.627Z,99.90
2019-03-02T19:58:34.071Z,99.90
2019-03-02T20:01:03.590Z,99.90
2019-03-02T20:03:33.044Z,99.90
2019-03-02T20:06:02.402Z,99.90
2019-03-02T20:08:31.899Z,99.90
2019-03-02T20:11:01.393Z,99.90
2019-03-02T20:13:30.773Z,99.90
2019-03-02T20:16:00.172Z,99.90
2019-03-02T20:18:29.531Z,99.90
2019-03-02T20:20:58.946Z,99.90
2019-03-02T20:23:36.970Z,99.90
2019-03-02T20:25:59.394Z,99.90
2019-03-02T20:28:28.721Z,99.90
2019-03-02T20:30:58.135Z,99.90
2019-03-02T20:33:27.488Z,99.90
2019-03-02T20:35:56.893Z,99.90
2019-03-02T20:38:26.294Z,99.90
2019-03-02T20:45:05.261Z,99.90
2019-03-02T20:47:34.649Z,99.90
2019-03-02T20:50:04.309Z,99.90
2019-03-02T20:52:33.686Z,99.90
2019-03-02T20:55:03.030Z,99.90
2019-03-02T20:57:36.836Z,99.90
2019-03-02T21:00:08.457Z,99.90
2019-03-02T21:02:37.903Z,99.90
2019-03-02T21:05:09.229Z,99.90
2019-03-02T21:07:38.650Z,99.90
2019-03-02T21:10:09.954Z,99.90
2019-03-02T21:12:39.310Z,99.90
2019-03-02T21:15:12.693Z,99.90
2019-03-02T21:17:42.167Z,99.90
2019-03-02T21:20:12.442Z,99.90
2019-03-02T21:22:41.917Z,99.90
2019-03-02T21:25:11.630Z,99.90
2019-03-02T21:27:40.993Z,99.90
2019-03-02T21:30:12.270Z,99.90
2019-03-02T21:32:41.721Z,99.90
2019-03-02T21:35:11.416Z,99.90
2019-03-02T21:37:40.796Z,99.90
2019-03-02T21:40:18.258Z,99.90
2019-03-02T21:42:47.732Z,99.90
2019-03-02T21:45:18.136Z,99.90
2019-03-02T21:47:47.995Z,99.90
2019-03-02T21:50:19.286Z,99.90
2019-03-02T21:52:48.660Z,99.90
2019-03-02T21:55:18.040Z,99.90
2019-03-02T21:57:47.385Z,99.90
2019-03-02T22:00:18.846Z,99.90
2019-03-02T22:02:48.184Z,99.90
2019-03-02T22:05:17.566Z,99.90
2019-03-02T22:07:46.949Z,99.90
2019-03-02T22:10:19.433Z,99.90
2019-03-02T22:12:48.773Z,99.90
2019-03-02T22:15:18.160Z,99.90
2019-03-02T22:17:49.295Z,99.90
2019-03-02T22:20:18.741Z,99.90
2019-03-02T22:22:48.061Z,99.90
2019-03-02T22:25:17.936Z,99.90
2019-03-02T22:27:47.394Z,99.90
2019-03-02T22:30:18.995Z,99.90
2019-03-02T22:32:48.338Z,99.90
2019-03-02T22:35:17.873Z,99.90
2019-03-02T22:37:47.233Z,99.90
2019-03-02T22:40:18.255Z,99.90
2019-03-02T22:42:47.638Z,99.90
2019-03-02T22:45:17.079Z,99.90
2019-03-02T22:47:46.373Z,99.90
2019-03-02T22:50:17.742Z,99.90
2019-03-02T22:52:47.084Z,99.90
2019-03-02T22:55:17.275Z,99.90
2019-03-02T22:57:48.562Z,99.90
2019-03-02T23:00:45.478Z,99.90
2019-03-02T23:03:13.263Z,99.90
2019-03-02T23:05:42.595Z,99.90
2019-03-02T23:08:11.997Z,99.90
2019-03-02T23:10:41.297Z,99.90
2019-03-02T23:13:10.627Z,99.90
2019-03-02T23:15:39.968Z,99.90
2019-03-02T23:18:09.295Z,99.90
2019-03-02T23:20:38.654Z,99.90
2019-03-02T23:23:08.043Z,99.90
2019-03-02T23:25:37.336Z,99.90
2019-03-02T23:28:06.679Z,99.90
2019-03-02T23:30:35.997Z,99.90
2019-03-02T23:33:05.354Z,99.90
2019-03-02T23:35:34.702Z,99.90
2019-03-02T23:38:04.837Z,99.90
2019-03-02T23:40:34.225Z,99.90
2019-03-02T23:43:03.590Z,99.90
2019-03-02T23:45:32.901Z,99.90
2019-03-02T23:48:02.270Z,99.90
2019-03-02T23:50:31.695Z,99.90
2019-03-02T23:53:01.042Z,99.90
2019-03-02T23:55:30.427Z,99.90
2019-03-02T23:57:59.819Z,99.90
